Buckman, MN (56317)

8:35 PM CDT on May 22, 2015 (GMT -0500)
Central Minnesota | | Change Station
CLOSE
Current Station
Personal Weather Station
Location: Rice, MN
Elevation: 1051 ft
Nearby Weather Stations
Active Advisory: Flood Warning Active Notice: Public Information Statement

Elev 1051 ft 45.76 °N, 94.19 °W | Updated 1 minute ago

Clear
Clear
65.5 °F
Feels Like 65.5 °F
N
0.0
Wind Variable Wind from NNW

Today
High -- | Low -- °F
--% Chance of Precip.
Yesterday
High -- | Low -- °F
Precip. -- in
5:37 AM 8:49 PM
Waxing Crescent, 25% visible
Pressure 30.18 in
Visibility 10.0 miles
Clouds Clear
Dew Point 43 °F
Humidity 44%
Rainfall 0.00 in
Snow Depth Not available.
UV 0 out of 12
Pollen 8.30 out of 12
Air Quality Not available.
Flu Activity Sporadic
METAR KLXL 230115Z AUTO 00000KT 10SM CLR 20/02 A3018 RMK AO2

More Conditions Fewer Conditions

Pressure 30.18 in
Visibility 10.0 miles
Clouds Clear
Dew Point 43 °F
Humidity 44%
Rainfall 0.00 in
Snow Depth Not available.
UV 0 out of 12
Pollen 8.30 out of 12
Air Quality Not available.
Flu Activity Sporadic
METAR KLXL 230115Z AUTO 00000KT 10SM CLR 20/02 A3018 RMK AO2

More Conditions Fewer Conditions

10-Day Weather Forecast

Almanac

Astronomy

May. 22, 2015 Rise Set
Actual Time
Civil Twilight
Nautical Twilight
Astronomical Twilight
Moon
Length of Visible Light
Length of Day
Tomorrow will be .
, % of the Moon is Illuminated

Today's Extremes

State Highs State Lows

Community

WunderPhotos

Upload Photos

1,823,357 photos uploaded!

WunderBlogs® & News

Nearby

Air Quality

  Air Quality AQ Index Pollutant
Not available.

Snow Depth

Station Depth Elevation

Earthquake Activity

City Distance Mag. Time & Date
Minimum magnitude displayed is 2.5.

Coastal Water Temperatures

Place Temperature

Stations

Nearby Weather Stations

Station Location Temp. Windchill Dew Point Humidity Wind Precip. Elev Updated Type
                   
Flood Warning
Statement as of 8:22 PM CDT on May 22, 2015

The Flood Warning continues for
the Mississippi River near Fort Ripley.
* At 7:00 PM Friday the stage was 10.3 feet.
* Flood stage is 10.0 feet.
* Minor flooding is occurring and minor flooding is forecast.
* Forecast... the river will continue rising to near 10.4 feet
tonight. The river will fall below flood stage Tuesday
morning.
* At 11.0 feet... this will cause minor flooding of rural areas near
Fort Ripley..




Lat... Lon 4644 9420 4630 9420 4617 9423 4616 9440
      4626 9442